createdAt,value
2022-09-20T00:00:36.628Z,19.40
2022-09-20T00:01:38.371Z,18.80
2022-09-20T00:02:40.048Z,18.90
2022-09-20T00:03:44.680Z,18.60
2022-09-20T00:04:49.065Z,18.40
2022-09-20T00:05:50.749Z,18.80
2022-09-20T00:06:52.380Z,19.00
2022-09-20T00:07:54.037Z,19.00
2022-09-20T00:08:56.696Z,19.30
2022-09-20T00:10:01.815Z,19.20
2022-09-20T00:11:16.241Z,19.10
2022-09-20T00:12:18.203Z,19.70
2022-09-20T00:13:19.843Z,19.80
2022-09-20T00:14:22.594Z,19.60
2022-09-20T00:15:24.655Z,19.00
2022-09-20T00:16:33.560Z,18.80
2022-09-20T00:17:35.321Z,18.80
2022-09-20T00:18:37.654Z,18.80
2022-09-20T00:19:39.350Z,18.80
2022-09-20T00:20:47.830Z,18.80
2022-09-20T00:21:49.521Z,18.80
2022-09-20T00:22:51.484Z,18.40
2022-09-20T00:23:53.986Z,18.60
2022-09-20T00:24:55.615Z,18.70
2022-09-20T00:25:59.583Z,19.10
2022-09-20T00:27:01.202Z,19.40
2022-09-20T00:28:02.833Z,19.40
2022-09-20T00:29:05.495Z,19.70
2022-09-20T00:30:08.017Z,19.30
2022-09-20T00:31:11.077Z,19.20
2022-09-20T00:32:13.358Z,19.70
2022-09-20T00:33:15.326Z,19.60
2022-09-20T00:34:35.711Z,19.30
2022-09-20T00:35:37.377Z,19.30
2022-09-20T00:36:39.051Z,19.90
2022-09-20T00:37:42.811Z,19.90
2022-09-20T00:38:44.542Z,19.90
2022-09-20T00:39:47.888Z,19.80
2022-09-20T00:40:49.588Z,19.70
2022-09-20T00:41:51.336Z,19.70
2022-09-20T00:42:53.498Z,19.80
2022-09-20T00:43:55.840Z,19.90
2022-09-20T00:45:00.195Z,19.80
2022-09-20T00:46:03.682Z,19.80
2022-09-20T00:47:06.780Z,19.90
2022-09-20T00:48:14.561Z,19.70
2022-09-20T00:49:22.651Z,19.20
2022-09-20T00:50:40.470Z,18.80
2022-09-20T00:51:46.183Z,18.70
2022-09-20T00:52:54.488Z,18.60
2022-09-20T00:54:00.589Z,18.60
2022-09-20T00:55:06.176Z,18.60
2022-09-20T00:56:15.241Z,18.60
2022-09-20T00:57:17.434Z,18.60
2022-09-20T00:58:20.437Z,19.10
2022-09-20T00:59:26.796Z,18.60
2022-09-20T01:00:29.150Z,18.60
2022-09-20T01:01:31.926Z,18.60
2022-09-20T01:02:37.383Z,18.60
2022-09-20T01:03:40.944Z,18.60
2022-09-20T01:04:43.131Z,18.80
2022-09-20T01:05:45.209Z,19.10
2022-09-20T01:06:48.489Z,19.00
2022-09-20T01:07:51.162Z,18.80
2022-09-20T01:08:56.525Z,18.80
2022-09-20T01:09:59.020Z,19.30
2022-09-20T01:11:01.357Z,19.10
2022-09-20T01:12:09.314Z,19.50
2022-09-20T01:13:11.215Z,20.10
2022-09-20T01:14:16.594Z,20.20
2022-09-20T01:15:18.622Z,20.20
2022-09-20T01:16:22.252Z,20.20
2022-09-20T01:17:30.187Z,20.40
2022-09-20T01:18:34.781Z,20.30
2022-09-20T01:20:02.748Z,20.20
2022-09-20T01:21:06.032Z,20.00
2022-09-20T01:22:27.002Z,19.70
2022-09-20T01:23:46.255Z,18.70
2022-09-20T01:27:26.647Z,18.70
2022-09-20T01:28:31.458Z,18.90
2022-09-20T01:29:58.046Z,19.30
2022-09-20T01:31:08.595Z,19.60
2022-09-20T01:32:16.586Z,20.30
2022-09-20T01:33:35.948Z,19.90
2022-09-20T01:34:45.528Z,20.20
2022-09-20T01:35:53.237Z,20.10
2022-09-20T01:37:28.654Z,20.40
2022-09-20T01:38:42.624Z,20.50
2022-09-20T01:40:10.576Z,21.00
2022-09-20T01:41:18.600Z,21.90
2022-09-20T01:42:28.719Z,21.90
2022-09-20T01:43:46.779Z,21.20
2022-09-20T01:45:10.494Z,19.60
2022-09-20T01:46:32.733Z,18.60
2022-09-20T01:48:25.141Z,18.60
2022-09-20T01:49:49.548Z,18.40
2022-09-20T01:51:04.117Z,18.40
2022-09-20T01:52:08.477Z,18.40
2022-09-20T01:53:40.583Z,18.50
2022-09-20T01:55:23.338Z,18.40
2022-09-20T01:56:42.830Z,18.50
2022-09-20T01:58:11.801Z,18.40
2022-09-20T01:59:57.854Z,18.40
2022-09-20T02:01:11.185Z,18.70
2022-09-20T02:02:56.862Z,18.90
2022-09-20T02:04:22.293Z,18.40
2022-09-20T02:05:58.398Z,18.40
2022-09-20T02:07:09.125Z,18.40
2022-09-20T02:08:32.240Z,18.40
2022-09-20T02:10:06.063Z,18.40
2022-09-20T02:11:14.166Z,18.40
2022-09-20T02:12:22.063Z,18.60
2022-09-20T02:13:30.032Z,18.70
2022-09-20T02:14:57.761Z,18.90
2022-09-20T02:16:29.798Z,18.40
2022-09-20T02:17:54.957Z,18.40
2022-09-20T02:19:28.121Z,18.60
2022-09-20T02:20:53.996Z,18.40
2022-09-20T02:22:15.593Z,18.40
2022-09-20T02:23:34.802Z,18.40
2022-09-20T02:24:50.855Z,18.40
2022-09-20T02:26:01.112Z,18.80
2022-09-20T02:27:40.368Z,19.90
2022-09-20T02:28:56.620Z,19.40
2022-09-20T02:29:59.308Z,19.20
2022-09-20T02:31:06.658Z,18.70
2022-09-20T02:32:24.023Z,18.50
2022-09-20T02:33:28.395Z,18.40
2022-09-20T02:34:46.960Z,17.70
2022-09-20T02:36:00.374Z,18.30
2022-09-20T02:37:18.367Z,18.30
2022-09-20T02:38:42.551Z,17.80
2022-09-20T02:40:11.334Z,17.60
2022-09-20T02:41:40.211Z,18.20
2022-09-20T02:43:04.814Z,18.40
2022-09-20T02:44:41.214Z,17.80
2022-09-20T02:45:59.013Z,17.60
2022-09-20T02:47:25.305Z,17.20
2022-09-20T02:48:44.274Z,17.10
2022-09-20T02:50:13.908Z,16.90
2022-09-20T02:51:26.852Z,17.00
2022-09-20T02:52:40.944Z,16.80
2022-09-20T02:53:59.436Z,17.10
2022-09-20T02:55:10.457Z,17.60
2022-09-20T02:56:17.694Z,17.40
2022-09-20T02:57:48.451Z,17.00
2022-09-20T02:59:19.794Z,17.10
2022-09-20T03:00:28.793Z,17.20
2022-09-20T03:01:51.810Z,17.60
2022-09-20T03:03:29.040Z,17.70
2022-09-20T03:04:33.420Z,17.70
2022-09-20T03:06:08.748Z,17.50
2022-09-20T03:07:17.533Z,17.90
2022-09-20T03:08:31.739Z,17.80
2022-09-20T03:09:51.524Z,17.70
2022-09-20T03:11:58.655Z,17.50
2022-09-20T03:13:41.619Z,18.10
2022-09-20T03:15:06.475Z,18.20
2022-09-20T03:16:52.209Z,18.50
2022-09-20T03:18:15.800Z,18.80
2022-09-20T03:19:38.151Z,18.90
2022-09-20T03:21:17.266Z,18.90
2022-09-20T03:22:59.081Z,19.60
2022-09-20T03:24:03.540Z,19.80
2022-09-20T03:25:23.587Z,19.40
2022-09-20T03:26:56.103Z,19.50
2022-09-20T03:28:14.255Z,19.30
2022-09-20T03:29:42.431Z,19.10
2022-09-20T03:31:12.238Z,18.90
2022-09-20T03:32:40.075Z,19.30
2022-09-20T03:33:53.531Z,18.50
2022-09-20T03:35:28.489Z,19.20
2022-09-20T03:36:48.658Z,19.30
2022-09-20T03:37:53.146Z,18.60
2022-09-20T03:39:16.029Z,18.70
2022-09-20T03:40:29.494Z,18.90
2022-09-20T03:42:03.482Z,19.30
2022-09-20T03:43:25.500Z,20.10
2022-09-20T03:44:43.456Z,20.20
2022-09-20T03:46:12.039Z,20.00
2022-09-20T03:47:49.759Z,19.70
2022-09-20T03:48:57.185Z,19.60
2022-09-20T03:50:07.579Z,19.50
2022-09-20T03:51:30.404Z,19.60
2022-09-20T03:52:44.599Z,19.60
2022-09-20T03:54:19.099Z,19.50
2022-09-20T03:55:47.209Z,20.30
2022-09-20T03:57:02.927Z,19.50
2022-09-20T03:58:08.179Z,19.40
2022-09-20T03:59:10.689Z,19.50
2022-09-20T04:00:12.210Z,19.40
2022-09-20T04:01:50.256Z,19.70
2022-09-20T04:03:25.862Z,18.90
2022-09-20T04:04:47.141Z,18.60
2022-09-20T04:06:07.402Z,18.60
2022-09-20T04:07:21.173Z,18.60
2022-09-20T04:08:40.289Z,18.60
2022-09-20T04:10:02.908Z,18.90
2022-09-20T04:11:16.647Z,19.10
2022-09-20T04:12:29.621Z,19.10
2022-09-20T04:13:44.517Z,19.60
2022-09-20T04:15:15.997Z,19.20
2022-09-20T04:16:25.542Z,19.20
2022-09-20T04:17:44.431Z,19.30
2022-09-20T04:18:50.589Z,19.80
2022-09-20T04:20:03.934Z,19.60
2022-09-20T04:21:14.000Z,19.80
2022-09-20T04:22:16.175Z,19.60
2022-09-20T04:23:42.735Z,19.30
2022-09-20T04:25:00.436Z,18.70
2022-09-20T04:26:03.195Z,18.70
2022-09-20T04:27:22.855Z,18.70
2022-09-20T04:28:35.385Z,18.30
2022-09-20T04:29:46.369Z,17.50
2022-09-20T04:30:50.550Z,17.20
2022-09-20T04:32:22.380Z,15.90
2022-09-20T04:33:29.745Z,15.70
2022-09-20T04:35:05.510Z,16.00
2022-09-20T04:36:35.432Z,15.90
2022-09-20T04:37:38.382Z,16.60
2022-09-20T04:38:40.679Z,16.30
2022-09-20T04:40:02.559Z,16.40
2022-09-20T04:41:34.283Z,16.50
2022-09-20T04:42:54.611Z,16.40
2022-09-20T04:44:31.818Z,15.10
2022-09-20T04:46:16.273Z,14.90
2022-09-20T04:47:23.739Z,14.90
2022-09-20T04:48:58.015Z,15.10
2022-09-20T04:50:19.289Z,16.20
2022-09-20T04:51:48.731Z,17.00
2022-09-20T04:53:42.522Z,17.30
2022-09-20T04:54:53.095Z,17.60
2022-09-20T04:56:21.483Z,17.30
2022-09-20T04:57:58.129Z,17.00
2022-09-20T04:59:10.172Z,17.00
2022-09-20T05:00:18.552Z,16.50
2022-09-20T05:01:59.097Z,14.90
2022-09-20T05:03:19.771Z,14.90
2022-09-20T05:05:06.313Z,14.90
2022-09-20T05:06:35.192Z,15.30
2022-09-20T05:07:56.747Z,15.30
2022-09-20T05:09:18.548Z,15.60
2022-09-20T05:10:44.910Z,15.50
2022-09-20T05:11:56.506Z,15.30
2022-09-20T05:13:05.420Z,15.40
2022-09-20T05:14:24.852Z,15.40
2022-09-20T05:15:51.322Z,15.20
2022-09-20T05:17:03.791Z,15.50
2022-09-20T05:18:56.593Z,15.40
2022-09-20T05:20:25.240Z,15.00
2022-09-20T05:21:46.717Z,14.90
2022-09-20T05:23:09.716Z,15.70
2022-09-20T05:24:53.561Z,15.00
2022-09-20T05:26:26.470Z,14.20
2022-09-20T05:27:46.663Z,13.50
2022-09-20T05:29:14.287Z,12.90
2022-09-20T05:30:44.699Z,14.10
2022-09-20T05:32:23.285Z,12.80
2022-09-20T05:33:46.956Z,12.80
2022-09-20T05:34:57.771Z,12.70
2022-09-20T05:36:12.727Z,13.00
2022-09-20T05:37:44.025Z,12.40
2022-09-20T05:39:05.316Z,11.80
2022-09-20T05:40:33.654Z,11.90
2022-09-20T05:41:46.225Z,12.10
2022-09-20T05:42:57.035Z,12.10
2022-09-20T05:44:20.854Z,12.50
2022-09-20T05:45:29.308Z,12.80
2022-09-20T05:46:54.655Z,13.20
2022-09-20T05:48:32.181Z,14.20
2022-09-20T05:49:58.727Z,14.60
2022-09-20T05:51:27.044Z,14.70
2022-09-20T05:52:59.264Z,14.40
2022-09-20T05:54:40.902Z,12.90
2022-09-20T05:56:05.497Z,13.00
2022-09-20T05:57:22.414Z,13.20
2022-09-20T05:58:53.388Z,12.50
2022-09-20T06:00:24.394Z,12.10
2022-09-20T06:01:31.063Z,12.20
2022-09-20T06:02:44.032Z,12.30
2022-09-20T06:04:20.575Z,13.10
2022-09-20T06:05:49.578Z,13.30
2022-09-20T06:07:11.008Z,13.20
2022-09-20T06:08:38.959Z,13.00
2022-09-20T06:10:20.425Z,13.50
2022-09-20T06:11:50.239Z,13.20
2022-09-20T06:13:20.637Z,13.60
2022-09-20T06:14:38.660Z,13.80
2022-09-20T06:15:58.548Z,13.50
2022-09-20T06:17:06.109Z,13.10
2022-09-20T06:18:17.562Z,13.70
2022-09-20T06:19:45.867Z,14.30
2022-09-20T06:21:33.718Z,14.80
2022-09-20T06:22:47.192Z,14.10
2022-09-20T06:23:48.969Z,14.30
2022-09-20T06:25:09.021Z,14.40
2022-09-20T06:26:17.277Z,14.20
2022-09-20T06:27:25.645Z,14.50
2022-09-20T06:28:34.001Z,13.90
2022-09-20T06:29:40.282Z,13.40
2022-09-20T06:30:48.358Z,13.50
2022-09-20T06:31:50.119Z,14.20
2022-09-20T06:32:54.785Z,14.00
2022-09-20T06:34:05.743Z,13.40
2022-09-20T06:35:08.442Z,13.30
2022-09-20T06:36:39.733Z,13.20
2022-09-20T06:38:10.405Z,12.90
2022-09-20T06:40:09.012Z,13.00
2022-09-20T06:41:28.483Z,12.50
2022-09-20T06:42:30.925Z,12.30
2022-09-20T06:43:32.551Z,12.50
2022-09-20T06:44:34.337Z,12.90
2022-09-20T06:45:37.113Z,13.40
2022-09-20T06:46:41.768Z,13.60
2022-09-20T06:47:43.389Z,13.50
2022-09-20T06:48:44.978Z,13.30
2022-09-20T06:49:47.665Z,13.30
2022-09-20T06:50:49.802Z,13.00
2022-09-20T06:51:53.997Z,12.70
2022-09-20T06:52:57.007Z,12.90
2022-09-20T06:53:58.892Z,12.40
2022-09-20T06:55:29.401Z,12.20
2022-09-20T06:56:36.775Z,12.40
2022-09-20T06:57:39.118Z,12.10
2022-09-20T06:58:45.069Z,11.90
2022-09-20T06:59:47.700Z,11.90
2022-09-20T07:00:49.306Z,11.40
2022-09-20T07:01:52.550Z,10.30
2022-09-20T07:02:55.479Z,10.50
2022-09-20T07:03:58.453Z,9.70
2022-09-20T07:05:00.784Z,8.90
2022-09-20T07:06:05.375Z,9.50
2022-09-20T07:07:15.406Z,9.30
2022-09-20T07:08:17.177Z,9.00
2022-09-20T07:09:19.812Z,9.10
2022-09-20T07:10:23.002Z,8.50
2022-09-20T07:11:24.999Z,9.20
2022-09-20T07:12:29.285Z,9.30
2022-09-20T07:13:30.905Z,9.30
2022-09-20T07:14:32.459Z,9.50
2022-09-20T07:15:37.775Z,10.20
2022-09-20T07:16:39.964Z,9.80
2022-09-20T07:17:45.118Z,9.90
2022-09-20T07:18:48.255Z,10.00
2022-09-20T07:19:49.906Z,10.00
2022-09-20T07:20:51.505Z,10.30
2022-09-20T07:21:53.938Z,10.40
2022-09-20T07:22:55.939Z,10.60
2022-09-20T07:24:00.123Z,10.20
2022-09-20T07:25:02.585Z,9.10
2022-09-20T07:26:05.143Z,9.50
2022-09-20T07:27:07.149Z,9.40
2022-09-20T07:28:10.037Z,9.70
2022-09-20T07:29:12.219Z,9.30
2022-09-20T07:30:16.837Z,9.30
2022-09-20T07:31:20.354Z,9.10
2022-09-20T07:32:23.548Z,8.60
2022-09-20T07:33:25.485Z,8.10
2022-09-20T07:34:29.862Z,8.40
2022-09-20T07:35:31.681Z,8.40
2022-09-20T07:36:33.474Z,8.70
2022-09-20T07:37:37.227Z,8.70
2022-09-20T07:38:40.049Z,8.00
2022-09-20T07:39:42.362Z,8.30
2022-09-20T07:40:46.508Z,8.30
2022-09-20T07:41:51.063Z,8.30
2022-09-20T07:42:56.108Z,8.00
2022-09-20T07:44:18.236Z,7.90
2022-09-20T07:45:19.787Z,8.30
2022-09-20T07:46:22.132Z,7.60
2022-09-20T07:47:26.507Z,7.70
2022-09-20T07:48:32.302Z,6.90
2022-09-20T07:49:34.002Z,7.50
2022-09-20T07:50:36.524Z,7.70
2022-09-20T07:51:38.077Z,7.60
2022-09-20T07:52:39.786Z,7.50
2022-09-20T07:53:41.712Z,7.60
2022-09-20T07:54:43.745Z,7.40
2022-09-20T07:55:58.935Z,6.70
2022-09-20T07:57:00.852Z,5.50
2022-09-20T07:58:02.457Z,5.30
2022-09-20T07:59:05.339Z,5.60
2022-09-20T08:00:08.968Z,6.00
2022-09-20T08:01:13.286Z,6.20
2022-09-20T08:02:16.200Z,6.30
2022-09-20T08:03:18.146Z,5.30
2022-09-20T08:04:19.801Z,5.10
2022-09-20T08:05:21.781Z,5.30
2022-09-20T08:06:24.002Z,5.90
2022-09-20T08:07:25.592Z,5.00
2022-09-20T08:08:29.914Z,4.20
2022-09-20T08:09:31.571Z,4.00
2022-09-20T08:10:33.453Z,4.00
2022-09-20T08:11:36.162Z,4.10
2022-09-20T08:14:05.841Z,4.10
2022-09-20T08:15:11.920Z,4.00
2022-09-20T08:16:15.177Z,4.10
2022-09-20T08:17:16.833Z,4.20
2022-09-20T08:18:18.637Z,3.50
2022-09-20T08:19:23.306Z,3.10
2022-09-20T08:20:25.127Z,2.20
2022-09-20T08:21:31.271Z,1.80
2022-09-20T08:22:33.123Z,2.20
2022-09-20T08:23:36.111Z,2.40
2022-09-20T08:24:38.031Z,2.60
2022-09-20T08:25:39.764Z,1.90
2022-09-20T08:26:41.826Z,1.70
2022-09-20T08:27:43.676Z,2.00
2022-09-20T08:28:46.270Z,2.00
2022-09-20T08:29:47.956Z,1.00
2022-09-20T08:30:49.631Z,1.00
2022-09-20T08:31:53.549Z,1.00
2022-09-20T08:32:55.766Z,1.00
2022-09-20T08:34:01.490Z,1.00
2022-09-20T08:35:03.878Z,1.00
2022-09-20T08:36:11.600Z,1.00
2022-09-20T08:37:13.233Z,1.00
2022-09-20T08:41:06.395Z,1.00
2022-09-20T08:42:18.371Z,1.00
2022-09-20T08:43:22.887Z,1.00
2022-09-20T08:44:35.698Z,1.00
2022-09-20T08:45:39.547Z,1.00
2022-09-20T08:46:51.794Z,1.00
2022-09-20T08:48:02.189Z,1.00
2022-09-20T08:49:10.895Z,1.00
2022-09-20T08:50:18.741Z,1.00
2022-09-20T08:51:23.299Z,1.00
2022-09-20T08:52:36.363Z,1.00
2022-09-20T08:53:49.103Z,1.00
2022-09-20T08:54:51.050Z,1.00
2022-09-20T08:55:52.650Z,1.00
2022-09-20T08:56:55.731Z,1.00
2022-09-20T08:57:59.253Z,1.00
2022-09-20T08:59:00.886Z,1.00
2022-09-20T09:00:05.006Z,1.00
2022-09-20T09:01:07.525Z,1.00
2022-09-20T09:02:16.489Z,1.00
2022-09-20T09:03:18.758Z,1.00
2022-09-20T09:04:23.466Z,1.00
2022-09-20T09:05:43.173Z,1.00
2022-09-20T09:06:45.962Z,1.00
2022-09-20T09:07:47.599Z,1.00
2022-09-20T09:08:53.617Z,1.00
2022-09-20T09:09:56.612Z,1.00
2022-09-20T09:11:13.735Z,1.00
2022-09-20T09:12:21.971Z,1.00
2022-09-20T09:13:31.629Z,1.00
2022-09-20T09:14:51.573Z,1.00
2022-09-20T09:16:00.852Z,1.00
2022-09-20T09:17:02.494Z,1.00
2022-09-20T09:18:09.098Z,1.00
2022-09-20T09:19:34.398Z,1.00
2022-09-20T09:20:46.699Z,1.00
2022-09-20T09:21:48.444Z,1.00
2022-09-20T09:23:09.064Z,1.00
2022-09-20T09:24:18.586Z,1.00
2022-09-20T09:25:26.747Z,1.00
2022-09-20T09:26:35.159Z,1.00
2022-09-20T09:27:51.189Z,1.00
2022-09-20T09:29:23.838Z,1.00
2022-09-20T09:30:34.776Z,1.00
2022-09-20T09:31:38.408Z,1.00
2022-09-20T09:32:40.154Z,1.00
2022-09-20T09:33:45.908Z,1.00
2022-09-20T09:34:47.694Z,1.00
2022-09-20T09:36:16.375Z,1.00
2022-09-20T09:37:31.125Z,1.00
2022-09-20T09:38:36.088Z,1.00
2022-09-20T09:39:38.266Z,1.00
2022-09-20T09:40:50.949Z,1.00
2022-09-20T09:41:52.780Z,1.00
2022-09-20T09:42:57.558Z,1.00
2022-09-20T09:44:10.418Z,1.00
2022-09-20T09:45:24.047Z,1.00
2022-09-20T09:46:31.173Z,1.00
2022-09-20T09:47:37.587Z,1.00
2022-09-20T09:48:40.276Z,1.00
2022-09-20T09:50:02.577Z,1.00
2022-09-20T09:51:15.320Z,1.00
2022-09-20T09:52:22.699Z,1.00
2022-09-20T09:53:24.746Z,1.00
2022-09-20T09:54:33.408Z,1.00
2022-09-20T09:55:43.744Z,1.00
2022-09-20T09:56:57.716Z,1.00
2022-09-20T09:58:12.620Z,1.00
2022-09-20T09:59:25.875Z,1.00
2022-09-20T10:00:31.618Z,1.00
2022-09-20T10:02:04.395Z,1.00
2022-09-20T10:03:38.726Z,1.00
2022-09-20T10:05:03.895Z,1.00
2022-09-20T10:06:18.541Z,1.00
2022-09-20T10:07:36.292Z,1.00
2022-09-20T10:08:56.958Z,1.00
2022-09-20T10:10:33.442Z,1.00
2022-09-20T10:11:58.710Z,1.00
2022-09-20T10:13:09.354Z,1.00
2022-09-20T10:14:32.931Z,1.00
2022-09-20T10:16:09.654Z,1.00
2022-09-20T10:17:28.866Z,1.00
2022-09-20T10:18:49.501Z,1.00
2022-09-20T10:20:33.638Z,1.00
2022-09-20T10:22:01.800Z,1.00
2022-09-20T10:23:45.217Z,1.00
2022-09-20T10:24:51.158Z,1.00
2022-09-20T10:26:05.493Z,1.00
2022-09-20T10:27:24.897Z,1.00
2022-09-20T10:28:53.287Z,1.00
2022-09-20T10:30:04.638Z,1.00
2022-09-20T10:31:09.032Z,1.00
2022-09-20T10:32:31.790Z,1.00
2022-09-20T10:33:51.670Z,1.00
2022-09-20T10:35:15.686Z,1.00
2022-09-20T10:36:20.636Z,1.00
2022-09-20T10:37:51.724Z,1.00
2022-09-20T10:39:16.961Z,1.00
2022-09-20T10:40:54.081Z,1.00
2022-09-20T10:42:41.070Z,1.00
2022-09-20T10:44:05.335Z,1.00
2022-09-20T10:45:59.547Z,1.00
2022-09-20T10:47:20.453Z,1.00
2022-09-20T10:48:31.846Z,1.00
2022-09-20T10:51:14.320Z,1.00
2022-09-20T10:51:35.293Z,1.00
2022-09-20T10:53:03.685Z,1.00
2022-09-20T10:54:27.929Z,1.00
2022-09-20T10:55:30.403Z,1.00
2022-09-20T10:56:47.062Z,1.00
2022-09-20T10:58:07.582Z,1.00
2022-09-20T10:59:30.644Z,1.00
2022-09-20T11:00:43.428Z,1.00
2022-09-20T11:02:09.622Z,1.00
2022-09-20T11:03:26.448Z,1.00
2022-09-20T11:04:53.216Z,1.00
2022-09-20T11:06:19.709Z,1.00
2022-09-20T11:08:05.720Z,1.00
2022-09-20T11:09:14.220Z,1.00
2022-09-20T11:10:45.019Z,1.00
2022-09-20T11:11:50.980Z,1.00
2022-09-20T11:13:02.136Z,1.00
2022-09-20T11:14:19.601Z,1.00
2022-09-20T11:15:35.133Z,1.00
2022-09-20T11:16:48.729Z,1.00
2022-09-20T11:18:12.668Z,1.00
2022-09-20T11:19:14.288Z,1.00
2022-09-20T11:20:22.462Z,1.00
2022-09-20T11:21:31.422Z,1.00
2022-09-20T11:22:44.709Z,1.00
2022-09-20T11:24:04.311Z,1.00
2022-09-20T11:25:29.720Z,1.00
2022-09-20T11:26:34.383Z,1.00
2022-09-20T11:27:47.143Z,1.00
2022-09-20T11:28:55.066Z,1.00
2022-09-20T11:30:13.323Z,1.00
2022-09-20T11:31:33.969Z,1.00
2022-09-20T11:32:46.436Z,1.00
2022-09-20T11:34:06.983Z,1.00
2022-09-20T11:35:11.344Z,1.00
2022-09-20T11:36:42.768Z,1.00
2022-09-20T11:37:55.148Z,1.00
2022-09-20T11:39:22.172Z,1.00
2022-09-20T11:40:29.859Z,1.00
2022-09-20T11:41:32.086Z,1.00
2022-09-20T11:42:36.970Z,1.00
2022-09-20T11:43:44.372Z,1.00
2022-09-20T11:44:46.545Z,1.00
2022-09-20T11:45:54.132Z,1.00
2022-09-20T11:47:05.453Z,1.00
2022-09-20T11:48:16.250Z,1.00
2022-09-20T11:49:30.249Z,1.00
2022-09-20T11:51:04.425Z,1.00
2022-09-20T11:52:46.113Z,1.00
2022-09-20T11:54:06.614Z,1.00
2022-09-20T11:55:15.847Z,1.00
2022-09-20T11:56:22.933Z,1.00
2022-09-20T11:57:26.231Z,1.00
2022-09-20T11:58:28.782Z,1.00
2022-09-20T11:59:37.245Z,1.00
2022-09-20T12:00:41.548Z,1.00
2022-09-20T12:01:43.855Z,1.00
2022-09-20T12:02:53.744Z,1.00
2022-09-20T12:05:37.198Z,1.00
2022-09-20T12:06:42.563Z,1.00
2022-09-20T12:07:44.394Z,1.00
2022-09-20T12:08:50.557Z,1.00
2022-09-20T12:10:08.513Z,1.00
2022-09-20T12:11:16.142Z,1.00
2022-09-20T12:12:41.616Z,1.00
2022-09-20T12:13:59.706Z,1.00
2022-09-20T12:15:22.633Z,1.00
2022-09-20T12:16:39.230Z,1.00
2022-09-20T12:17:47.040Z,1.00
2022-09-20T12:18:54.659Z,1.00
2022-09-20T12:19:56.347Z,1.00
2022-09-20T12:21:15.247Z,1.00
2022-09-20T12:22:28.048Z,1.00
2022-09-20T12:23:39.642Z,1.00
2022-09-20T12:24:45.337Z,1.00
2022-09-20T12:26:04.558Z,1.00
2022-09-20T12:27:44.303Z,1.00
2022-09-20T12:28:55.669Z,1.00
2022-09-20T12:30:03.965Z,1.00
2022-09-20T12:31:31.810Z,1.00
2022-09-20T12:32:41.853Z,1.00
2022-09-20T12:33:59.609Z,1.00
2022-09-20T12:35:02.139Z,1.00
2022-09-20T12:36:21.985Z,1.00
2022-09-20T12:37:26.594Z,1.00
2022-09-20T12:38:32.043Z,1.00
2022-09-20T12:39:39.198Z,1.00
2022-09-20T12:41:02.202Z,1.00
2022-09-20T12:42:30.909Z,1.00
2022-09-20T12:43:37.018Z,1.00
2022-09-20T12:44:44.211Z,1.00
2022-09-20T12:45:54.619Z,1.00
2022-09-20T12:47:10.510Z,1.00
2022-09-20T12:48:19.696Z,1.00
2022-09-20T12:49:46.405Z,1.00
2022-09-20T12:51:44.054Z,1.00
2022-09-20T12:52:58.230Z,1.00
2022-09-20T12:54:06.819Z,1.00
2022-09-20T12:55:33.879Z,1.00
2022-09-20T12:56:38.874Z,1.00
2022-09-20T12:57:41.288Z,1.00
2022-09-20T12:58:53.509Z,1.00
2022-09-20T12:59:59.390Z,1.00
2022-09-20T13:01:04.422Z,1.00
2022-09-20T13:02:47.372Z,1.00
2022-09-20T13:03:50.515Z,1.00
2022-09-20T13:04:55.390Z,1.00
2022-09-20T13:06:10.853Z,1.00
2022-09-20T13:07:43.644Z,1.00
2022-09-20T13:08:53.682Z,1.00
2022-09-20T13:09:55.713Z,1.00
2022-09-20T13:11:14.953Z,1.00
2022-09-20T13:12:17.074Z,1.00
2022-09-20T13:13:33.528Z,1.00
2022-09-20T13:14:35.275Z,1.00
2022-09-20T13:15:37.718Z,1.00
2022-09-20T13:16:53.669Z,1.00
2022-09-20T13:18:00.316Z,1.00
2022-09-20T13:19:29.662Z,1.00
2022-09-20T13:20:34.988Z,1.00
2022-09-20T13:21:49.799Z,1.00
2022-09-20T13:22:57.111Z,1.00
2022-09-20T13:24:03.475Z,1.00
2022-09-20T13:25:07.518Z,1.00
2022-09-20T13:26:11.550Z,1.00
2022-09-20T13:27:22.259Z,1.00
2022-09-20T13:28:50.039Z,1.00
2022-09-20T13:29:53.543Z,1.00
2022-09-20T13:31:20.655Z,1.00
2022-09-20T13:32:27.998Z,1.00
2022-09-20T13:33:31.366Z,1.00
2022-09-20T13:34:33.514Z,1.00
2022-09-20T13:35:35.351Z,1.00
2022-09-20T13:36:38.884Z,1.00
2022-09-20T13:37:50.299Z,1.00
2022-09-20T13:38:53.398Z,1.00
2022-09-20T13:39:55.205Z,1.00
2022-09-20T13:41:06.329Z,1.00
2022-09-20T13:42:16.391Z,1.00
2022-09-20T13:43:28.862Z,1.00
2022-09-20T13:44:34.280Z,1.00
2022-09-20T13:45:36.829Z,1.00
2022-09-20T13:46:44.370Z,1.00
2022-09-20T13:47:51.326Z,1.00
2022-09-20T13:48:59.540Z,1.00
2022-09-20T13:50:17.894Z,1.00
2022-09-20T13:51:30.963Z,1.00
2022-09-20T13:52:32.781Z,1.00
2022-09-20T13:53:42.995Z,1.00
2022-09-20T13:54:45.025Z,1.00
2022-09-20T13:55:48.138Z,1.00
2022-09-20T13:56:51.308Z,1.00
2022-09-20T13:57:57.209Z,1.00
2022-09-20T13:59:05.151Z,1.00
2022-09-20T14:00:07.542Z,1.00
2022-09-20T14:01:34.732Z,1.00
2022-09-20T14:02:38.135Z,1.00
2022-09-20T14:03:39.791Z,1.00
2022-09-20T14:04:41.445Z,1.00
2022-09-20T14:06:16.067Z,1.00
2022-09-20T14:07:17.857Z,1.00
2022-09-20T14:08:28.153Z,1.00
2022-09-20T14:09:39.484Z,1.00
2022-09-20T14:10:43.781Z,1.00
2022-09-20T14:11:46.648Z,1.00
2022-09-20T14:12:49.570Z,1.00
2022-09-20T14:13:56.908Z,1.00
2022-09-20T14:14:59.004Z,1.00
2022-09-20T14:16:01.021Z,1.00
2022-09-20T14:17:06.275Z,1.00
2022-09-20T14:18:15.861Z,1.00
2022-09-20T14:19:20.953Z,1.00
2022-09-20T14:20:22.917Z,1.00
2022-09-20T14:21:26.960Z,1.00
2022-09-20T14:22:29.483Z,1.00
2022-09-20T14:23:31.677Z,1.00
2022-09-20T14:24:35.703Z,1.00
2022-09-20T14:25:38.730Z,1.00
2022-09-20T14:26:43.425Z,1.00
2022-09-20T14:27:45.463Z,1.00
2022-09-20T14:28:47.489Z,1.00
2022-09-20T14:29:51.281Z,1.00
2022-09-20T14:31:04.177Z,1.00
2022-09-20T14:32:40.642Z,1.00
2022-09-20T14:33:46.405Z,1.00
2022-09-20T14:34:57.398Z,1.00
2022-09-20T14:35:59.371Z,1.00
2022-09-20T14:37:18.146Z,1.00
2022-09-20T14:38:24.790Z,1.00
2022-09-20T14:39:26.643Z,1.00
2022-09-20T14:40:43.990Z,1.00
2022-09-20T14:41:47.550Z,1.00
2022-09-20T14:42:56.701Z,1.00
2022-09-20T14:44:00.484Z,1.00
2022-09-20T14:45:05.221Z,1.00
2022-09-20T14:46:17.461Z,1.00
2022-09-20T14:47:38.878Z,1.00
2022-09-20T14:48:42.079Z,1.00
2022-09-20T14:49:45.360Z,1.00
2022-09-20T14:51:14.165Z,1.00
2022-09-20T14:52:28.443Z,1.00
2022-09-20T14:53:31.767Z,1.00
2022-09-20T14:54:34.872Z,1.00
2022-09-20T14:55:38.027Z,1.00
2022-09-20T14:56:43.706Z,1.00
2022-09-20T14:57:47.696Z,1.00
2022-09-20T14:59:07.029Z,1.00
2022-09-20T15:00:14.146Z,1.00
2022-09-20T15:01:25.875Z,1.00
2022-09-20T15:02:27.928Z,1.00
2022-09-20T15:03:37.630Z,1.00
2022-09-20T15:04:42.032Z,1.00
2022-09-20T15:05:47.683Z,1.00
2022-09-20T15:06:50.725Z,1.00
2022-09-20T15:07:57.064Z,1.00
2022-09-20T15:09:00.504Z,1.00
2022-09-20T15:10:02.249Z,1.00
2022-09-20T15:11:04.688Z,1.00
2022-09-20T15:12:07.744Z,1.00
2022-09-20T15:13:12.486Z,1.00
2022-09-20T15:14:14.163Z,1.00
2022-09-20T15:15:18.874Z,1.00
2022-09-20T15:16:21.126Z,1.00
2022-09-20T15:17:23.519Z,1.00
2022-09-20T15:18:28.815Z,1.00
2022-09-20T15:19:30.531Z,1.00
2022-09-20T15:20:32.130Z,1.00
2022-09-20T15:21:33.748Z,1.00
2022-09-20T15:22:35.604Z,1.00
2022-09-20T15:23:38.306Z,1.00
2022-09-20T15:24:40.926Z,1.00
2022-09-20T15:25:42.973Z,1.00
2022-09-20T15:26:47.163Z,1.00
2022-09-20T15:27:52.327Z,1.00
2022-09-20T15:28:54.079Z,1.00
2022-09-20T15:29:56.053Z,1.00
2022-09-20T15:30:58.797Z,1.00
2022-09-20T15:32:00.641Z,1.00
2022-09-20T15:33:03.263Z,1.00
2022-09-20T15:34:06.480Z,1.00
2022-09-20T15:35:08.868Z,1.00
2022-09-20T15:36:10.539Z,1.00
2022-09-20T15:37:13.493Z,1.00
2022-09-20T15:38:17.929Z,1.00
2022-09-20T15:39:21.256Z,1.00
2022-09-20T15:40:22.978Z,1.00
2022-09-20T15:41:29.117Z,1.00
2022-09-20T15:42:32.704Z,1.00
2022-09-20T15:43:34.496Z,1.00
2022-09-20T15:44:36.383Z,1.00
2022-09-20T15:45:50.206Z,1.00
2022-09-20T15:46:53.164Z,1.00
2022-09-20T15:47:55.404Z,1.00
2022-09-20T15:49:00.573Z,1.00
2022-09-20T15:50:03.273Z,1.00
2022-09-20T15:51:07.182Z,1.00
2022-09-20T15:52:08.846Z,1.00
2022-09-20T15:53:10.747Z,1.00
2022-09-20T15:54:14.619Z,1.00
2022-09-20T15:55:16.330Z,1.00
2022-09-20T15:56:27.684Z,1.00
2022-09-20T15:57:30.505Z,1.00
2022-09-20T15:58:36.103Z,1.00
2022-09-20T15:59:40.434Z,1.00
2022-09-20T16:00:42.574Z,1.00
2022-09-20T16:01:45.631Z,1.00